createdAt,value
2023-05-14T18:41:32.783Z,100660.39
2023-05-14T18:43:59.180Z,100665.58
2023-05-14T18:46:30.760Z,100662.45
2023-05-14T18:48:59.137Z,100663.29
2023-05-14T18:51:30.007Z,100664.93
2023-05-14T18:53:59.045Z,100663.20
2023-05-14T18:56:25.568Z,100661.19
2023-05-14T18:58:53.017Z,100665.20
2023-05-14T19:01:20.563Z,100665.95
2023-05-14T19:03:47.024Z,100665.39
2023-05-14T19:06:13.574Z,100671.79
2023-05-14T19:08:40.810Z,100666.39
2023-05-14T19:11:07.269Z,100669.34
2023-05-14T19:13:33.914Z,100666.27
2023-05-14T19:16:00.357Z,100663.29
2023-05-14T19:18:26.844Z,100661.34
2023-05-14T19:20:53.225Z,100656.58
2023-05-14T19:23:19.581Z,100653.25
2023-05-14T19:25:45.938Z,100651.51
2023-05-14T19:28:13.708Z,100649.52
2023-05-14T19:30:40.656Z,100647.41
2023-05-14T19:33:07.167Z,100643.46
2023-05-14T19:35:33.962Z,100650.15
2023-05-14T19:38:00.232Z,100650.87
2023-05-14T19:40:26.590Z,100650.77
2023-05-14T19:42:55.418Z,100648.59
2023-05-14T19:45:22.108Z,100646.86
2023-05-14T19:47:48.619Z,100643.98
2023-05-14T19:50:15.293Z,100643.20
2023-05-14T19:52:41.836Z,100637.73
2023-05-14T19:55:08.607Z,100642.19
2023-05-14T19:57:35.067Z,100637.27
2023-05-14T20:00:01.373Z,100636.45
2023-05-14T20:02:31.309Z,100638.61
2023-05-14T20:04:57.892Z,100636.86
2023-05-14T20:07:25.162Z,100640.58
2023-05-14T20:09:51.629Z,100638.97
2023-05-14T20:12:18.010Z,100636.11
2023-05-14T20:14:44.379Z,100632.55
2023-05-14T20:17:10.993Z,100633.21
2023-05-14T20:19:37.314Z,100630.73
2023-05-14T20:22:03.973Z,100632.44
2023-05-14T20:24:30.705Z,100627.48
2023-05-14T20:26:57.005Z,100631.34
2023-05-14T20:29:23.353Z,100630.22
2023-05-14T20:31:49.737Z,100632.60
2023-05-14T20:34:16.167Z,100634.13
2023-05-14T20:36:42.482Z,100629.59
2023-05-14T20:39:10.334Z,100627.90
